THY3NV LTFM-EDDF
Flight info
| Callsign | THY3NV |
|---|---|
| Flight time | N/A |
| Altitude | 40000 |
| Route | VADEN1D/35L VADEN N618 BAKLO DCT XANEX DCT UTEKA DCT BABIT DCT GOTAR DCT ABRUK DCT SIMBA DCT AKINI T161 DEBHI DEBHI1B |
| Aircraft | A359/H-SDE2E3GHIJ3J4J5LM1ORWXY/LB1D1 |
Departure
| Time | 2026-05-07 15:40 |
|---|---|
| Airport | İstanbul Airport (LTFM) |
Arrival
| Time | N/A |
|---|---|
| Airport | Frankfurt Main Airport (EDDF) |
| Time | Latitude | Longitude | Altitude | Speed | Heading |
|---|---|---|---|---|---|
| 2026-05-07 15:07 | 41.26786 | 28.73529 | 341 ft | 0 kts | 178° |
| 2026-05-07 15:07 | 41.26786 | 28.73528 | 340 ft | 0 kts | 178° |
| 2026-05-07 15:26 | 41.26807 | 28.73528 | 340 ft | 4 kts | 179° |
| 2026-05-07 15:26 | 41.26834 | 28.73527 | 340 ft | 4 kts | 179° |
| 2026-05-07 15:26 | 41.26857 | 28.73528 | 340 ft | 4 kts | 206° |
| 2026-05-07 15:26 | 41.26871 | 28.73551 | 340 ft | 4 kts | 263° |
| 2026-05-07 15:27 | 41.26872 | 28.73583 | 340 ft | 1 kts | 269° |
| 2026-05-07 15:27 | 41.26872 | 28.73589 | 340 ft | 0 kts | 269° |
| 2026-05-07 15:30 | 41.26872 | 28.73585 | 340 ft | 2 kts | 269° |
| 2026-05-07 15:30 | 41.26872 | 28.73575 | 340 ft | 0 kts | 269° |
| 2026-05-07 15:35 | 41.26872 | 28.73553 | 340 ft | 5 kts | 269° |
| 2026-05-07 15:36 | 41.26870 | 28.73453 | 340 ft | 10 kts | 268° |
| 2026-05-07 15:36 | 41.26869 | 28.73385 | 340 ft | 12 kts | 269° |
| 2026-05-07 15:36 | 41.26867 | 28.73266 | 340 ft | 14 kts | 269° |
| 2026-05-07 15:36 | 41.26866 | 28.73125 | 340 ft | 16 kts | 269° |
| 2026-05-07 15:37 | 41.26850 | 28.73010 | 340 ft | 8 kts | 221° |
| 2026-05-07 15:37 | 41.26785 | 28.72992 | 340 ft | 12 kts | 179° |
| 2026-05-07 15:37 | 41.26724 | 28.72943 | 340 ft | 0 kts | 248° |
| 2026-05-07 15:37 | 41.26723 | 28.72942 | 340 ft | 0 kts | 248° |
| 2026-05-07 15:38 | 41.26718 | 28.72918 | 340 ft | 6 kts | 257° |
| 2026-05-07 15:38 | 41.26716 | 28.72841 | 340 ft | 11 kts | 268° |
| 2026-05-07 15:38 | 41.26713 | 28.72713 | 340 ft | 16 kts | 269° |
| 2026-05-07 15:38 | 41.26712 | 28.72563 | 340 ft | 10 kts | 269° |
| 2026-05-07 15:39 | 41.26728 | 28.72527 | 340 ft | 3 kts | 328° |
| 2026-05-07 15:39 | 41.26754 | 28.72517 | 340 ft | 4 kts | 350° |
| 2026-05-07 15:39 | 41.26817 | 28.72514 | 340 ft | 26 kts | 358° |
| 2026-05-07 15:39 | 41.27268 | 28.72502 | 340 ft | 100 kts | 359° |
| 2026-05-07 15:40 | 41.28178 | 28.72482 | 341 ft | 160 kts | 359° |
| 2026-05-07 15:40 | 41.29409 | 28.72451 | 750 ft | 179 kts | 355° |
| 2026-05-07 15:40 | 41.30638 | 28.72368 | 1587 ft | 176 kts | 356° |
| 2026-05-07 15:40 | 41.31884 | 28.72352 | 2147 ft | 181 kts | 359° |
| 2026-05-07 15:41 | 41.33163 | 28.72387 | 2594 ft | 188 kts | 1° |
| 2026-05-07 15:41 | 41.34524 | 28.72438 | 2858 ft | 205 kts | 1° |
| 2026-05-07 15:41 | 41.36004 | 28.72476 | 3135 ft | 219 kts | 0° |
| 2026-05-07 15:41 | 41.37570 | 28.72272 | 3406 ft | 237 kts | 346° |
| 2026-05-07 15:42 | 41.39082 | 28.71246 | 3633 ft | 256 kts | 316° |
| 2026-05-07 15:42 | 41.40212 | 28.69366 | 4104 ft | 264 kts | 303° |
| 2026-05-07 15:42 | 41.41202 | 28.67281 | 4715 ft | 268 kts | 301° |
| 2026-05-07 15:42 | 41.42178 | 28.65144 | 5335 ft | 271 kts | 300° |
| 2026-05-07 15:43 | 41.43162 | 28.62984 | 5944 ft | 274 kts | 300° |
| 2026-05-07 15:43 | 41.44159 | 28.60799 | 6539 ft | 277 kts | 301° |
| 2026-05-07 15:43 | 41.45155 | 28.58619 | 7114 ft | 280 kts | 301° |
| 2026-05-07 15:43 | 41.46175 | 28.56389 | 7685 ft | 283 kts | 301° |
| 2026-05-07 15:44 | 41.47206 | 28.54137 | 8244 ft | 286 kts | 301° |
| 2026-05-07 15:44 | 41.48247 | 28.51860 | 8792 ft | 289 kts | 301° |
| 2026-05-07 15:44 | 41.49297 | 28.49563 | 9329 ft | 292 kts | 301° |
| 2026-05-07 15:44 | 41.50360 | 28.47237 | 9861 ft | 295 kts | 301° |
| 2026-05-07 15:45 | 41.51439 | 28.44871 | 10225 ft | 304 kts | 300° |
| 2026-05-07 15:45 | 41.52559 | 28.42412 | 10453 ft | 317 kts | 300° |
| 2026-05-07 15:45 | 41.53726 | 28.39849 | 10675 ft | 328 kts | 301° |
| 2026-05-07 15:45 | 41.54931 | 28.37202 | 10887 ft | 339 kts | 301° |
| 2026-05-07 15:46 | 41.57433 | 28.31703 | 11512 ft | 351 kts | 301° |
| 2026-05-07 15:46 | 41.58709 | 28.28897 | 11899 ft | 354 kts | 301° |
| 2026-05-07 15:46 | 41.59990 | 28.26077 | 12283 ft | 357 kts | 301° |
| 2026-05-07 15:47 | 41.61282 | 28.23227 | 12658 ft | 360 kts | 301° |
| 2026-05-07 15:47 | 41.62581 | 28.20361 | 13020 ft | 362 kts | 301° |
| 2026-05-07 15:47 | 41.63889 | 28.17471 | 13372 ft | 364 kts | 301° |
| 2026-05-07 15:47 | 41.65203 | 28.14563 | 13713 ft | 367 kts | 300° |
| 2026-05-07 15:48 | 41.66525 | 28.11636 | 14045 ft | 369 kts | 300° |
| 2026-05-07 15:48 | 41.67853 | 28.08693 | 14369 ft | 371 kts | 300° |
| 2026-05-07 15:48 | 41.69189 | 28.05728 | 14687 ft | 373 kts | 300° |
| 2026-05-07 15:48 | 41.70530 | 28.02750 | 14999 ft | 375 kts | 300° |
| 2026-05-07 15:49 | 41.71881 | 27.99747 | 15303 ft | 377 kts | 300° |
| 2026-05-07 15:49 | 41.73235 | 27.96732 | 15601 ft | 379 kts | 300° |
| 2026-05-07 15:49 | 41.74599 | 27.93696 | 15895 ft | 381 kts | 300° |
| 2026-05-07 15:49 | 41.75968 | 27.90644 | 16180 ft | 383 kts | 300° |
| 2026-05-07 15:50 | 41.77339 | 27.87582 | 16457 ft | 385 kts | 300° |
| 2026-05-07 15:50 | 41.78701 | 27.84539 | 16722 ft | 387 kts | 300° |
| 2026-05-07 15:50 | 41.80087 | 27.81437 | 16983 ft | 389 kts | 300° |
| 2026-05-07 15:50 | 41.81477 | 27.78326 | 17235 ft | 390 kts | 300° |
| 2026-05-07 15:51 | 41.82874 | 27.75193 | 17484 ft | 392 kts | 300° |
| 2026-05-07 15:51 | 41.84276 | 27.72049 | 17724 ft | 394 kts | 300° |
| 2026-05-07 15:51 | 41.85684 | 27.68887 | 17955 ft | 396 kts | 300° |
| 2026-05-07 15:51 | 41.87096 | 27.65710 | 18184 ft | 397 kts | 300° |
| 2026-05-07 15:52 | 41.88513 | 27.62523 | 18407 ft | 399 kts | 300° |
| 2026-05-07 15:52 | 41.89934 | 27.59321 | 18624 ft | 400 kts | 300° |
| 2026-05-07 15:52 | 41.91360 | 27.56102 | 18835 ft | 402 kts | 300° |
| 2026-05-07 15:52 | 41.92792 | 27.52869 | 19041 ft | 403 kts | 300° |
| 2026-05-07 15:53 | 41.94227 | 27.49626 | 19239 ft | 405 kts | 300° |
| 2026-05-07 15:53 | 41.95667 | 27.46367 | 19432 ft | 406 kts | 300° |
| 2026-05-07 15:53 | 41.97108 | 27.43101 | 19620 ft | 408 kts | 300° |
| 2026-05-07 15:53 | 41.98556 | 27.39817 | 19804 ft | 409 kts | 300° |
| 2026-05-07 15:54 | 42.00007 | 27.36522 | 19982 ft | 410 kts | 300° |
| 2026-05-07 15:54 | 42.01462 | 27.33213 | 20158 ft | 412 kts | 300° |
| 2026-05-07 15:54 | 42.02920 | 27.29895 | 20329 ft | 413 kts | 300° |
| 2026-05-07 15:54 | 42.04382 | 27.26563 | 20496 ft | 414 kts | 300° |
| 2026-05-07 15:55 | 42.05841 | 27.23276 | 20653 ft | 415 kts | 301° |
| 2026-05-07 15:55 | 42.07530 | 27.20113 | 20800 ft | 417 kts | 308° |
| 2026-05-07 15:55 | 42.09382 | 27.17109 | 20953 ft | 418 kts | 310° |
| 2026-05-07 15:55 | 42.11317 | 27.14178 | 21101 ft | 419 kts | 311° |
| 2026-05-07 15:56 | 42.13289 | 27.11276 | 21244 ft | 420 kts | 312° |
| 2026-05-07 15:56 | 42.15273 | 27.08374 | 21385 ft | 421 kts | 312° |
| 2026-05-07 15:56 | 42.17254 | 27.05459 | 21522 ft | 422 kts | 312° |
| 2026-05-07 15:56 | 42.19232 | 27.02522 | 21655 ft | 424 kts | 311° |
| 2026-05-07 15:57 | 42.21208 | 26.99564 | 21786 ft | 425 kts | 311° |
| 2026-05-07 15:57 | 42.23180 | 26.96593 | 21912 ft | 425 kts | 311° |
| 2026-05-07 15:57 | 42.25153 | 26.93611 | 22036 ft | 426 kts | 311° |
| 2026-05-07 15:57 | 42.27128 | 26.90618 | 22154 ft | 427 kts | 311° |
| 2026-05-07 15:58 | 42.29107 | 26.87617 | 22270 ft | 428 kts | 311° |
| 2026-05-07 15:58 | 42.31087 | 26.84611 | 22382 ft | 429 kts | 311° |
| 2026-05-07 15:58 | 42.33073 | 26.81595 | 22493 ft | 430 kts | 311° |
| 2026-05-07 15:58 | 42.35062 | 26.78572 | 22601 ft | 431 kts | 311° |
| 2026-05-07 15:59 | 42.37055 | 26.75539 | 22705 ft | 432 kts | 311° |
| 2026-05-07 15:59 | 42.39051 | 26.72502 | 22807 ft | 432 kts | 311° |
| 2026-05-07 15:59 | 42.41050 | 26.69455 | 22909 ft | 433 kts | 311° |
| 2026-05-07 15:59 | 42.43052 | 26.66401 | 23007 ft | 434 kts | 311° |
| 2026-05-07 16:00 | 42.45056 | 26.63339 | 23104 ft | 435 kts | 311° |
| 2026-05-07 16:00 | 42.47064 | 26.60269 | 23199 ft | 436 kts | 311° |
| 2026-05-07 16:00 | 42.49046 | 26.57234 | 23289 ft | 436 kts | 311° |
| 2026-05-07 16:00 | 42.51055 | 26.54156 | 23377 ft | 437 kts | 311° |
| 2026-05-07 16:01 | 42.53038 | 26.51031 | 23461 ft | 438 kts | 308° |
| 2026-05-07 16:01 | 42.54770 | 26.47633 | 23546 ft | 438 kts | 301° |
| 2026-05-07 16:01 | 42.56322 | 26.44078 | 23629 ft | 438 kts | 299° |
| 2026-05-07 16:01 | 42.57806 | 26.40468 | 23712 ft | 439 kts | 298° |
| 2026-05-07 16:02 | 42.59255 | 26.36814 | 23792 ft | 440 kts | 297° |
| 2026-05-07 16:02 | 42.60687 | 26.33145 | 23870 ft | 440 kts | 297° |
| 2026-05-07 16:02 | 42.62117 | 26.29464 | 23948 ft | 441 kts | 297° |
| 2026-05-07 16:02 | 42.63550 | 26.25782 | 24024 ft | 441 kts | 297° |
| 2026-05-07 16:03 | 42.64989 | 26.22095 | 24099 ft | 442 kts | 297° |
| 2026-05-07 16:03 | 42.66432 | 26.18408 | 24176 ft | 443 kts | 297° |
| 2026-05-07 16:03 | 42.67878 | 26.14719 | 24250 ft | 443 kts | 297° |
| 2026-05-07 16:03 | 42.69329 | 26.11015 | 24325 ft | 444 kts | 297° |
| 2026-05-07 16:04 | 42.70781 | 26.07307 | 24399 ft | 444 kts | 297° |
| 2026-05-07 16:04 | 42.72234 | 26.03594 | 24462 ft | 445 kts | 297° |
| 2026-05-07 16:04 | 42.73686 | 25.99875 | 24528 ft | 446 kts | 297° |
| 2026-05-07 16:04 | 42.75140 | 25.96146 | 24594 ft | 446 kts | 297° |
| 2026-05-07 16:05 | 42.76593 | 25.92417 | 24658 ft | 447 kts | 297° |
| 2026-05-07 16:05 | 42.78045 | 25.88681 | 24722 ft | 447 kts | 297° |
| 2026-05-07 16:05 | 42.79501 | 25.84935 | 24782 ft | 448 kts | 297° |
| 2026-05-07 16:05 | 42.80956 | 25.81184 | 24841 ft | 448 kts | 297° |
| 2026-05-07 16:06 | 42.82409 | 25.77431 | 24898 ft | 449 kts | 297° |
| 2026-05-07 16:06 | 42.83864 | 25.73669 | 24957 ft | 449 kts | 297° |
| 2026-05-07 16:06 | 42.85321 | 25.69902 | 25016 ft | 449 kts | 297° |
| 2026-05-07 16:06 | 42.86776 | 25.66131 | 25077 ft | 450 kts | 297° |
| 2026-05-07 16:07 | 42.88231 | 25.62351 | 25135 ft | 450 kts | 297° |
| 2026-05-07 16:07 | 42.89667 | 25.58616 | 25191 ft | 451 kts | 297° |
| 2026-05-07 16:07 | 42.91123 | 25.54826 | 25248 ft | 451 kts | 297° |
| 2026-05-07 16:07 | 42.92579 | 25.51031 | 25301 ft | 452 kts | 297° |
| 2026-05-07 16:08 | 42.94035 | 25.47231 | 25355 ft | 452 kts | 297° |
| 2026-05-07 16:08 | 42.95490 | 25.43429 | 25413 ft | 453 kts | 297° |
| 2026-05-07 16:08 | 42.96948 | 25.39615 | 25466 ft | 453 kts | 297° |
| 2026-05-07 16:08 | 42.98406 | 25.35800 | 25521 ft | 454 kts | 297° |
| 2026-05-07 16:09 | 42.99866 | 25.31978 | 25580 ft | 454 kts | 297° |
| 2026-05-07 16:09 | 43.01323 | 25.28151 | 25634 ft | 454 kts | 297° |
| 2026-05-07 16:09 | 43.02781 | 25.24316 | 25688 ft | 455 kts | 297° |
| 2026-05-07 16:09 | 43.04239 | 25.20475 | 25742 ft | 455 kts | 297° |
| 2026-05-07 16:10 | 43.05696 | 25.16630 | 25801 ft | 456 kts | 297° |
| 2026-05-07 16:10 | 43.07154 | 25.12780 | 25857 ft | 456 kts | 297° |
| 2026-05-07 16:10 | 43.08612 | 25.08924 | 25909 ft | 457 kts | 297° |
| 2026-05-07 16:10 | 43.10072 | 25.05057 | 25967 ft | 457 kts | 297° |
| 2026-05-07 16:11 | 43.11529 | 25.01193 | 26021 ft | 458 kts | 297° |
| 2026-05-07 16:11 | 43.12989 | 24.97317 | 26073 ft | 458 kts | 297° |
| 2026-05-07 16:11 | 43.14375 | 24.93389 | 26126 ft | 458 kts | 294° |
| 2026-05-07 16:11 | 43.15653 | 24.89389 | 26200 ft | 459 kts | 292° |
| 2026-05-07 16:12 | 43.16880 | 24.85373 | 26737 ft | 453 kts | 292° |
| 2026-05-07 16:12 | 43.18070 | 24.81448 | 27678 ft | 439 kts | 292° |
| 2026-05-07 16:12 | 43.19236 | 24.77629 | 28453 ft | 432 kts | 292° |
| 2026-05-07 16:12 | 43.20406 | 24.73835 | 28872 ft | 433 kts | 292° |
| 2026-05-07 16:13 | 43.21590 | 24.70031 | 29218 ft | 435 kts | 292° |
| 2026-05-07 16:13 | 43.22787 | 24.66211 | 29546 ft | 438 kts | 292° |
| 2026-05-07 16:13 | 43.23996 | 24.62367 | 29875 ft | 440 kts | 292° |
| 2026-05-07 16:13 | 43.25195 | 24.58551 | 30210 ft | 443 kts | 292° |
| 2026-05-07 16:14 | 43.26433 | 24.54614 | 30561 ft | 445 kts | 292° |
| 2026-05-07 16:14 | 43.27660 | 24.50704 | 30905 ft | 447 kts | 292° |
| 2026-05-07 16:14 | 43.28875 | 24.46823 | 31239 ft | 450 kts | 292° |
| 2026-05-07 16:14 | 43.30109 | 24.42872 | 31566 ft | 452 kts | 292° |
| 2026-05-07 16:15 | 43.31348 | 24.38897 | 31900 ft | 454 kts | 292° |
| 2026-05-07 16:15 | 43.32594 | 24.34897 | 32235 ft | 456 kts | 292° |
| 2026-05-07 16:15 | 43.33841 | 24.30885 | 32541 ft | 458 kts | 292° |
| 2026-05-07 16:15 | 43.35096 | 24.26846 | 32834 ft | 461 kts | 292° |
| 2026-05-07 16:16 | 43.36354 | 24.22789 | 33121 ft | 463 kts | 292° |
| 2026-05-07 16:16 | 43.37615 | 24.18714 | 33393 ft | 465 kts | 292° |
| 2026-05-07 16:16 | 43.38883 | 24.14614 | 33697 ft | 466 kts | 292° |
| 2026-05-07 16:16 | 43.40150 | 24.10505 | 33931 ft | 468 kts | 292° |
| 2026-05-07 16:17 | 43.41421 | 24.06375 | 33929 ft | 470 kts | 292° |
| 2026-05-07 16:17 | 43.42700 | 24.02213 | 34080 ft | 473 kts | 292° |
| 2026-05-07 16:17 | 43.43987 | 23.98021 | 34223 ft | 479 kts | 291° |
| 2026-05-07 16:18 | 43.46602 | 23.89470 | 34410 ft | 490 kts | 293° |
| 2026-05-07 16:18 | 43.47932 | 23.85121 | 34516 ft | 495 kts | 293° |
| 2026-05-07 16:18 | 43.49268 | 23.80749 | 34819 ft | 495 kts | 293° |
| 2026-05-07 16:18 | 43.50597 | 23.76385 | 35232 ft | 493 kts | 293° |
| 2026-05-07 16:19 | 43.51917 | 23.72036 | 35601 ft | 492 kts | 293° |
| 2026-05-07 16:19 | 43.53234 | 23.67691 | 35943 ft | 491 kts | 293° |
| 2026-05-07 16:19 | 43.54549 | 23.63351 | 36275 ft | 490 kts | 293° |
| 2026-05-07 16:19 | 43.55861 | 23.59014 | 36593 ft | 490 kts | 293° |
| 2026-05-07 16:20 | 43.57169 | 23.54679 | 36891 ft | 490 kts | 293° |
| 2026-05-07 16:20 | 43.58477 | 23.50338 | 37197 ft | 490 kts | 293° |
| 2026-05-07 16:20 | 43.59784 | 23.45995 | 37477 ft | 490 kts | 292° |
| 2026-05-07 16:20 | 43.61088 | 23.41652 | 37748 ft | 490 kts | 292° |
| 2026-05-07 16:21 | 43.62393 | 23.37302 | 38004 ft | 490 kts | 292° |
| 2026-05-07 16:21 | 43.63695 | 23.32955 | 38262 ft | 490 kts | 292° |
| 2026-05-07 16:21 | 43.64979 | 23.28659 | 38519 ft | 490 kts | 292° |
| 2026-05-07 16:21 | 43.66275 | 23.24310 | 38748 ft | 490 kts | 292° |
| 2026-05-07 16:22 | 43.67572 | 23.19951 | 38972 ft | 490 kts | 292° |
| 2026-05-07 16:22 | 43.68867 | 23.15596 | 39211 ft | 491 kts | 292° |
| 2026-05-07 16:22 | 43.70164 | 23.11233 | 39417 ft | 491 kts | 292° |
| 2026-05-07 16:22 | 43.71456 | 23.06875 | 39637 ft | 490 kts | 292° |
| 2026-05-07 16:23 | 43.72748 | 23.02510 | 39853 ft | 490 kts | 292° |
| 2026-05-07 16:23 | 43.74038 | 22.98146 | 39988 ft | 490 kts | 292° |
| 2026-05-07 16:23 | 43.75322 | 22.93793 | 39998 ft | 487 kts | 292° |
| 2026-05-07 16:24 | 43.77864 | 22.85138 | 40001 ft | 485 kts | 292° |
| 2026-05-07 16:24 | 43.80398 | 22.76487 | 39998 ft | 485 kts | 291° |
| 2026-05-07 16:25 | 43.82924 | 22.67839 | 40000 ft | 485 kts | 291° |
| 2026-05-07 16:25 | 43.85445 | 22.59179 | 40000 ft | 485 kts | 291° |
| 2026-05-07 16:26 | 43.87958 | 22.50516 | 40000 ft | 484 kts | 291° |
| 2026-05-07 16:26 | 43.90544 | 22.41961 | 39998 ft | 484 kts | 296° |
| 2026-05-07 16:27 | 43.94304 | 22.34238 | 40002 ft | 484 kts | 308° |
| 2026-05-07 16:27 | 43.98625 | 22.27068 | 40000 ft | 484 kts | 310° |
| 2026-05-07 16:28 | 44.02321 | 22.21139 | 40000 ft | 484 kts | 310° |
| 2026-05-07 16:28 | 44.06699 | 22.14100 | 40000 ft | 484 kts | 310° |
| 2026-05-07 16:29 | 44.11110 | 22.06932 | 40000 ft | 484 kts | 310° |
| 2026-05-07 16:29 | 44.15476 | 21.99790 | 40000 ft | 484 kts | 310° |
| 2026-05-07 16:30 | 44.19806 | 21.92685 | 40000 ft | 484 kts | 310° |
| 2026-05-07 16:30 | 44.24165 | 21.85519 | 40000 ft | 484 kts | 310° |
| 2026-05-07 16:31 | 44.28522 | 21.78342 | 40000 ft | 485 kts | 309° |
| 2026-05-07 16:31 | 44.32873 | 21.71152 | 40000 ft | 485 kts | 309° |
| 2026-05-07 16:32 | 44.37222 | 21.63953 | 40000 ft | 485 kts | 309° |
| 2026-05-07 16:32 | 44.41565 | 21.56745 | 40001 ft | 485 kts | 309° |
| 2026-05-07 16:33 | 44.45908 | 21.49521 | 40000 ft | 485 kts | 309° |
| 2026-05-07 16:33 | 44.50246 | 21.42288 | 40000 ft | 485 kts | 309° |
| 2026-05-07 16:34 | 44.54581 | 21.35034 | 40000 ft | 485 kts | 309° |
| 2026-05-07 16:34 | 44.58908 | 21.27776 | 40000 ft | 485 kts | 309° |
| 2026-05-07 16:35 | 44.63233 | 21.20503 | 40000 ft | 485 kts | 309° |
| 2026-05-07 16:35 | 44.67553 | 21.13223 | 40000 ft | 485 kts | 309° |
| 2026-05-07 16:36 | 44.71872 | 21.05932 | 40000 ft | 485 kts | 309° |
| 2026-05-07 16:36 | 44.76184 | 20.98625 | 40000 ft | 485 kts | 309° |
| 2026-05-07 16:37 | 44.80491 | 20.91311 | 40000 ft | 485 kts | 309° |
| 2026-05-07 16:37 | 44.84794 | 20.83982 | 40000 ft | 486 kts | 309° |
| 2026-05-07 16:38 | 44.89097 | 20.76637 | 40000 ft | 486 kts | 309° |
| 2026-05-07 16:38 | 44.93365 | 20.69333 | 40000 ft | 486 kts | 309° |
| 2026-05-07 16:39 | 44.97658 | 20.61967 | 40000 ft | 486 kts | 309° |
| 2026-05-07 16:39 | 45.01944 | 20.54593 | 40000 ft | 486 kts | 309° |
| 2026-05-07 16:40 | 45.06230 | 20.47199 | 40000 ft | 486 kts | 309° |
| 2026-05-07 16:40 | 45.10511 | 20.39795 | 40000 ft | 486 kts | 309° |
| 2026-05-07 16:41 | 45.14786 | 20.32382 | 40000 ft | 486 kts | 309° |
| 2026-05-07 16:41 | 45.19057 | 20.24953 | 40000 ft | 486 kts | 308° |
| 2026-05-07 16:42 | 45.23324 | 20.17506 | 40000 ft | 486 kts | 308° |
| 2026-05-07 16:42 | 45.27586 | 20.10055 | 40000 ft | 486 kts | 308° |
| 2026-05-07 16:43 | 45.31846 | 20.02588 | 40000 ft | 486 kts | 308° |
| 2026-05-07 16:43 | 45.36098 | 19.95116 | 40000 ft | 486 kts | 308° |
| 2026-05-07 16:44 | 45.40351 | 19.87626 | 40000 ft | 486 kts | 308° |
| 2026-05-07 16:44 | 45.44599 | 19.80125 | 40000 ft | 487 kts | 308° |
| 2026-05-07 16:45 | 45.48840 | 19.72611 | 40000 ft | 487 kts | 308° |
| 2026-05-07 16:45 | 45.53046 | 19.65135 | 40000 ft | 487 kts | 308° |
| 2026-05-07 16:46 | 45.57279 | 19.57599 | 40000 ft | 487 kts | 308° |
| 2026-05-07 16:46 | 45.61512 | 19.50050 | 40000 ft | 487 kts | 308° |
| 2026-05-07 16:47 | 45.65759 | 19.42439 | 40000 ft | 487 kts | 308° |
| 2026-05-07 16:47 | 45.69954 | 19.34912 | 40000 ft | 487 kts | 308° |
| 2026-05-07 16:48 | 45.74171 | 19.27325 | 40000 ft | 487 kts | 308° |
| 2026-05-07 16:48 | 45.78383 | 19.19721 | 40000 ft | 487 kts | 308° |
| 2026-05-07 16:49 | 45.82591 | 19.12105 | 40000 ft | 487 kts | 308° |
| 2026-05-07 16:49 | 45.86795 | 19.04476 | 40000 ft | 487 kts | 308° |
| 2026-05-07 16:50 | 45.90991 | 18.96839 | 40000 ft | 488 kts | 308° |
| 2026-05-07 16:50 | 45.94824 | 18.88820 | 40000 ft | 487 kts | 301° |
| 2026-05-07 16:51 | 45.98324 | 18.80485 | 40000 ft | 487 kts | 300° |
| 2026-05-07 16:51 | 46.01761 | 18.72089 | 40000 ft | 487 kts | 300° |
| 2026-05-07 16:52 | 46.05193 | 18.63675 | 40000 ft | 487 kts | 300° |
| 2026-05-07 16:52 | 46.08627 | 18.55264 | 40000 ft | 487 kts | 300° |
| 2026-05-07 16:53 | 46.12066 | 18.46846 | 40000 ft | 488 kts | 300° |
| 2026-05-07 16:53 | 46.15499 | 18.38412 | 40000 ft | 488 kts | 300° |
| 2026-05-07 16:54 | 46.18897 | 18.30019 | 40000 ft | 488 kts | 300° |
| 2026-05-07 16:54 | 46.22314 | 18.21555 | 40000 ft | 488 kts | 300° |
| 2026-05-07 16:55 | 46.25728 | 18.13080 | 40000 ft | 488 kts | 300° |
| 2026-05-07 16:55 | 46.29140 | 18.04590 | 40000 ft | 488 kts | 299° |
| 2026-05-07 16:56 | 46.32543 | 17.96089 | 40000 ft | 488 kts | 300° |
| 2026-05-07 16:56 | 46.37637 | 17.83316 | 40000 ft | 488 kts | 299° |
| 2026-05-07 16:57 | 46.41027 | 17.74791 | 40000 ft | 489 kts | 299° |
| 2026-05-07 16:57 | 46.44413 | 17.66247 | 40000 ft | 489 kts | 299° |
| 2026-05-07 16:58 | 46.47790 | 17.57693 | 40000 ft | 489 kts | 299° |
| 2026-05-07 16:58 | 46.51163 | 17.49122 | 40000 ft | 489 kts | 299° |
| 2026-05-07 16:59 | 46.54530 | 17.40539 | 40000 ft | 489 kts | 299° |
| 2026-05-07 16:59 | 46.57895 | 17.31938 | 40000 ft | 489 kts | 299° |